Kenneth Carl — WDF8246 — position and weather

sailwx.info

Track history (hours):
 
Tides and Currents Weather Stations Pressure Air Temp Water Temp Dewpoint Dewpoint Depression Visibility Wind Speed Wind Dir Waves Ship Positions

Kenneth Carl

Owner: So. Cal. Ship Services, Inc., San Pedro, CA. More information available from US FCC via Universal Licensing System and Coast Guard Vessel Documentation Center.

Last reported at 2015-Jul-04 01:20 UTC. Time now 2015-Jul-04 03:24 UTC.
Position N 33°44' W 118°16'.

Length 31 m; draft 3 m.

Type: Ship. MMSI: 367492920.

Date/timePositionNaut miles runAvg speedWind from/ knotsBaromVisibWave heightAir tempDewpointWater temp
2015-Jul-04 01:20N 33°44' W 118°16'0 0.0
2015-Jul-03 23:25N 33°44' W 118°16'0 0.0
2015-Jul-03 22:32N 33°44' W 118°16'8 8.1
2015-Jul-03 21:31N 33°37' W 118°11'3 3.1
2015-Jul-03 20:25N 33°35' W 118°08'0 0.1
2015-Jul-03 19:33N 33°35' W 118°08'0 0.0
2015-Jul-03 18:33N 33°35' W 118°08'0 0.0
2015-Jul-03 17:33N 33°35' W 118°08'1 1.2
2015-Jul-03 16:33N 33°34' W 118°07'3 3.0
2015-Jul-03 15:33N 33°36' W 118°09'10 9.6
2015-Jul-03 14:33N 33°44' W 118°16'0 0.1
2015-Jul-03 12:11N 33°44' W 118°16'0 0.0
2015-Jul-03 11:29N 33°44' W 118°16'0 0.0
2015-Jul-03 10:26N 33°44' W 118°16'0 0.0
2015-Jul-03 09:29N 33°44' W 118°16'0 0.0
2015-Jul-03 08:32N 33°44' W 118°16'0 0.0
2015-Jul-03 07:26N 33°44' W 118°16'0 0.0
2015-Jul-03 06:32N 33°44' W 118°16'0 0.0
2015-Jul-03 05:32N 33°44' W 118°16'0 0.0
2015-Jul-03 04:32N 33°44' W 118°16'0 0.0
2015-Jul-03 03:29N 33°44' W 118°16'0 0.0
2015-Jul-03 02:32N 33°44' W 118°16'0 0.0
2015-Jul-03 01:29N 33°44' W 118°16'0 0.0
2015-Jul-03 00:29N 33°44' W 118°16'0 0.0
2015-Jul-02 23:33N 33°44' W 118°16'1 0.7
2015-Jul-02 22:33N 33°43' W 118°16'9 8.7
2015-Jul-02 21:33N 33°37' W 118°10'4 3.6
2015-Jul-02 20:33N 33°34' W 118°07'8 7.9
2015-Jul-02 19:33N 33°40' W 118°12'5 4.9
2015-Jul-02 18:33N 33°44' W 118°16'5 5.0
2015-Jul-02 17:31N 33°40' W 118°12'6 6.5
2015-Jul-02 16:31N 33°35' W 118°08'8 7.9
2015-Jul-02 15:33N 33°41' W 118°13'4 3.6
2015-Jul-02 14:29N 33°44' W 118°16'0 0.4
2015-Jul-02 13:33N 33°44' W 118°16'0 0.0
2015-Jul-02 12:32N 33°44' W 118°16'0 0.0
2015-Jul-02 11:33N 33°44' W 118°16'0 0.0
2015-Jul-02 10:33N 33°44' W 118°16'0 0.0
2015-Jul-02 09:33N 33°44' W 118°16'0 0.0
2015-Jul-02 08:29N 33°44' W 118°16'0 0.0
2015-Jul-02 07:33N 33°44' W 118°16'0 0.0
2015-Jul-02 06:27N 33°44' W 118°16'0 0.0
2015-Jul-02 05:33N 33°44' W 118°16'0 0.0
2015-Jul-02 04:31N 33°44' W 118°16'0 0.0
2015-Jul-02 03:22N 33°44' W 118°16'0 0.0
2015-Jul-02 02:33N 33°44' W 118°16'0 0.0
2015-Jul-02 01:33N 33°44' W 118°16'0 0.0
2015-Jul-02 00:33N 33°44' W 118°16'0 0.0
2015-Jul-01 23:33N 33°44' W 118°16'5 5.4
2015-Jul-01 22:33N 33°40' W 118°12'6 6.2
2015-Jul-01 21:33N 33°35' W 118°08'0 0.1
2015-Jul-01 20:33N 33°35' W 118°08'0 0.0
2015-Jul-01 19:33N 33°35' W 118°08'0 0.1
2015-Jul-01 18:33N 33°35' W 118°08'1 1.2
2015-Jul-01 17:33N 33°34' W 118°07'9 8.7
2015-Jul-01 16:33N 33°41' W 118°13'4 4.1
2015-Jul-01 15:33N 33°44' W 118°16'0 0.0
2015-Jul-01 14:33N 33°44' W 118°16'0 0.0
2015-Jul-01 13:33N 33°44' W 118°16'0 0.0
2015-Jul-01 12:33N 33°44' W 118°16'0 0.0
2015-Jul-01 11:33N 33°44' W 118°16'0 0.0
2015-Jul-01 10:33N 33°44' W 118°16'0 0.0
2015-Jul-01 09:30N 33°44' W 118°16'0 0.0
2015-Jul-01 08:31N 33°44' W 118°16'0 0.0
2015-Jul-01 07:33N 33°44' W 118°16'0 0.0
2015-Jul-01 06:33N 33°44' W 118°16'0 0.0
2015-Jul-01 05:33N 33°44' W 118°16'0 0.0
2015-Jul-01 04:33N 33°44' W 118°16'0 0.0
2015-Jul-01 03:33N 33°44' W 118°16'0 0.0
2015-Jul-01 02:33N 33°44' W 118°16'0 0.0
2015-Jul-01 01:33N 33°44' W 118°16'0 0.0
2015-Jul-01 00:33N 33°44' W 118°16'0 0.0
2015-Jun-30 23:33N 33°44' W 118°16'0 0.0
2015-Jun-30 22:33N 33°44' W 118°16'0 0.0
2015-Jun-30 21:33N 33°44' W 118°16'0 0.0
2015-Jun-30 20:33N 33°44' W 118°16'5 5.2
2015-Jun-30 19:33N 33°40' W 118°12'8 7.4
2015-Jun-30 18:32N 33°34' W 118°07'0 0.2
2015-Jun-30 17:30N 33°34' W 118°07'0 0.0
2015-Jun-30 16:33N 33°34' W 118°07'5 4.7
2015-Jun-30 15:31N 33°38' W 118°10'8 8.2
2015-Jun-30 14:33N 33°44' W 118°16'0 0.0
2015-Jun-30 13:33N 33°44' W 118°16'0 0.0
2015-Jun-30 12:33N 33°44' W 118°16'0 0.0
2015-Jun-30 11:33N 33°44' W 118°16'0 0.0
2015-Jun-30 10:33N 33°44' W 118°16'0 0.0
2015-Jun-30 09:33N 33°44' W 118°16'0 0.0
2015-Jun-30 08:28N 33°44' W 118°16'0 0.0
2015-Jun-30 07:32N 33°44' W 118°16'0 0.0
2015-Jun-30 06:33N 33°44' W 118°16'0 0.0
2015-Jun-30 05:33N 33°44' W 118°16'0 0.0
2015-Jun-30 04:33N 33°44' W 118°16'0 0.0
2015-Jun-30 03:33N 33°44' W 118°16'0 0.0
2015-Jun-30 02:33N 33°44' W 118°16'0 0.0
2015-Jun-30 01:33N 33°44' W 118°16'0 0.0
2015-Jun-30 00:33N 33°44' W 118°16'0 0.0
2015-Jun-29 23:33N 33°44' W 118°16'8 8.0
2015-Jun-29 22:33N 33°37' W 118°11'4 3.6
2015-Jun-29 21:32N 33°35' W 118°08'0 0.1
2015-Jun-29 20:33N 33°35' W 118°08'0 0.0
2015-Jun-29 19:32N 33°35' W 118°08'0 0.0
2015-Jun-29 18:33N 33°35' W 118°08'1 1.2
2015-Jun-29 17:33N 33°34' W 118°07'3 3.1
2015-Jun-29 16:30N 33°37' W 118°09'9 9.7
2015-Jun-29 15:33N 33°44' W 118°16'1 0.6
2015-Jun-29 14:33N 33°44' W 118°16'0 0.0
2015-Jun-29 13:33N 33°44' W 118°16'0 0.0
2015-Jun-29 12:27N 33°44' W 118°16'0 0.0
2015-Jun-29 10:18N 33°44' W 118°16'0 0.0
2015-Jun-29 09:12N 33°44' W 118°16'0 0.0
2015-Jun-29 08:30N 33°44' W 118°16'0 0.0
2015-Jun-29 07:27N 33°44' W 118°16'0 0.0
2015-Jun-29 06:30N 33°44' W 118°16'0 0.0
2015-Jun-29 05:27N 33°44' W 118°16'0 0.0
2015-Jun-29 04:33N 33°44' W 118°16'0 0.0
2015-Jun-29 03:33N 33°44' W 118°16'0 0.0
2015-Jun-29 02:33N 33°44' W 118°16'0 0.0
2015-Jun-29 01:30N 33°44' W 118°16'0 0.0
2015-Jun-29 00:33N 33°44' W 118°16'0 0.0
2015-Jun-28 23:33N 33°44' W 118°16'0 0.0
2015-Jun-28 22:33N 33°44' W 118°16'0 0.0
2015-Jun-28 21:03N 33°44' W 118°16'0 0.0
2015-Jun-28 20:30N 33°44' W 118°16'0 0.0
2015-Jun-28 19:03N 33°44' W 118°16'0 0.0
2015-Jun-28 17:21N 33°44' W 118°16'0 0.0
2015-Jun-28 06:30N 33°44' W 118°16'0 0.0
2015-Jun-28 04:30N 33°44' W 118°16'0 0.0
2015-Jun-28 00:30N 33°44' W 118°16'0 0.0
2015-Jun-27 23:33N 33°44' W 118°16'0 0.0
2015-Jun-27 22:24N 33°44' W 118°16'0 0.0
2015-Jun-27 21:12N 33°44' W 118°16'0 0.0
2015-Jun-27 20:30N 33°44' W 118°16'0 0.0
2015-Jun-27 19:30N 33°44' W 118°16'0 0.0
2015-Jun-27 18:30N 33°44' W 118°16'0 0.0
2015-Jun-27 17:30N 33°44' W 118°16'0 0.0
2015-Jun-27 16:30N 33°44' W 118°16'0 0.0
2015-Jun-27 15:33N 33°44' W 118°16'0 0.0
2015-Jun-27 14:33N 33°44' W 118°16'0 0.0
2015-Jun-27 13:33N 33°44' W 118°16'0 0.0
2015-Jun-27 12:33N 33°44' W 118°16'0 0.0
2015-Jun-27 11:30N 33°44' W 118°16'0 0.0
2015-Jun-27 10:33N 33°44' W 118°16'0 0.0
2015-Jun-27 09:33N 33°44' W 118°16'0 0.0
2015-Jun-27 08:30N 33°44' W 118°16'0 0.0
2015-Jun-27 07:33N 33°44' W 118°16'0 0.0
2015-Jun-27 06:30N 33°44' W 118°16'0 0.0
2015-Jun-27 05:33N 33°44' W 118°16'0 0.0
2015-Jun-27 04:33N 33°44' W 118°16'0 0.0
2015-Jun-27 03:31N 33°44' W 118°16'0 0.0
2015-Jun-27 02:33N 33°44' W 118°16'0 0.0
2015-Jun-27 01:33N 33°44' W 118°16'0 0.0
2015-Jun-27 00:33N 33°44' W 118°16'1 1.0
2015-Jun-26 23:33N 33°43' W 118°16'10 9.6
2015-Jun-26 22:33N 33°36' W 118°08'1 1.0
2015-Jun-26 21:34N 33°35' W 118°08'0 0.0
2015-Jun-26 20:30N 33°35' W 118°08'0 0.1
2015-Jun-26 19:33N 33°35' W 118°08'1 1.0
2015-Jun-26 18:19N 33°34' W 118°07'1 0.7
2015-Jun-26 17:32N 33°34' W 118°07'1 0.8
2015-Jun-26 16:34N 33°35' W 118°08'9 8.6
2015-Jun-26 15:33N 33°42' W 118°14'3 0.9
2015-Jun-26 12:21N 33°44' W 118°16'0 0.0
2015-Jun-26 11:33N 33°44' W 118°16'0 0.0
2015-Jun-26 10:33N 33°44' W 118°16'0 0.0
2015-Jun-26 09:33N 33°44' W 118°16'0 0.0
2015-Jun-26 08:33N 33°44' W 118°16'0 0.0
2015-Jun-26 07:18N 33°44' W 118°16'0 0.0
2015-Jun-26 06:33N 33°44' W 118°16'0 0.0
2015-Jun-26 05:33N 33°44' W 118°16'0 0.0
2015-Jun-26 04:33N 33°44' W 118°16'0 0.0
2015-Jun-26 03:33N 33°44' W 118°16'0 0.0
2015-Jun-26 02:33N 33°44' W 118°16'0 0.0
2015-Jun-26 01:33N 33°44' W 118°16'0 0.0
2015-Jun-26 00:33N 33°44' W 118°16'8 7.9
2015-Jun-25 23:33N 33°38' W 118°10'5 5.0
2015-Jun-25 22:33N 33°34' W 118°07'1 1.2
2015-Jun-25 21:33N 33°35' W 118°08'0 0.0
2015-Jun-25 20:27N 33°35' W 118°08'0 0.0
2015-Jun-25 19:06N 33°35' W 118°08'0 0.1
2015-Jun-25 18:33N 33°35' W 118°08'10 9.0
2015-Jun-25 17:25N 33°43' W 118°16'1 1.1
2015-Jun-25 16:24N 33°44' W 118°16'0 0.1
2015-Jun-25 12:29N 33°44' W 118°16'0 0.0
2015-Jun-25 11:25N 33°44' W 118°16'0 0.0
2015-Jun-25 07:32N 33°44' W 118°16'0 0.0
2015-Jun-25 06:32N 33°44' W 118°16'0 0.0
2015-Jun-25 05:32N 33°44' W 118°16'0 0.0
2015-Jun-25 04:31N 33°44' W 118°16'0 0.0
2015-Jun-25 03:28N 33°44' W 118°16'0 0.0
2015-Jun-25 02:26N 33°44' W 118°16'0 0.0
2015-Jun-25 01:32N 33°44' W 118°16'0 0.0
2015-Jun-25 00:32N 33°44' W 118°16'0 0.0
2015-Jun-24 23:32N 33°44' W 118°16'3 3.4
2015-Jun-24 22:33N 33°42' W 118°13'8 8.3
2015-Jun-24 21:33N 33°35' W 118°08'0 0.0
2015-Jun-24 20:33N 33°35' W 118°08'0 0.0
2015-Jun-24 19:32N 33°35' W 118°08'0 0.0
2015-Jun-24 18:33N 33°35' W 118°08'0 0.0
2015-Jun-24 17:33N 33°35' W 118°08'0 0.1
2015-Jun-24 16:33N 33°35' W 118°08'11 5.7
2015-Jun-24 14:33N 33°44' W 118°16'0 0.0
2015-Jun-24 12:11N 33°44' W 118°16'0 0.0
2015-Jun-24 11:26N 33°44' W 118°16'0 0.0
2015-Jun-24 09:32N 33°44' W 118°16'0 0.0
2015-Jun-24 08:20N 33°44' W 118°16'0 0.0
2015-Jun-24 06:20N 33°44' W 118°16'0 0.0
2015-Jun-24 05:05N 33°44' W 118°16'0 0.0
2015-Jun-24 04:29N 33°44' W 118°16'0 0.0
2015-Jun-24 03:32N 33°44' W 118°16'0 0.0
2015-Jun-24 02:32N 33°44' W 118°16'0 0.0
2015-Jun-24 01:23N 33°44' W 118°16'  
Track history (hours):
 
Tides and Currents Weather Stations Pressure Air Temp Water Temp Dewpoint Dewpoint Depression Visibility Wind Speed Wind Dir Waves Ship Positions

Kenneth Carl

Owner: So. Cal. Ship Services, Inc., San Pedro, CA. More information available from US FCC via Universal Licensing System and Coast Guard Vessel Documentation Center.

Last reported at 2015-Jul-04 01:20 UTC. Time now 2015-Jul-04 03:24 UTC.
Position N 33°44' W 118°16'.

Length 31 m; draft 3 m.

Type: Ship. MMSI: 367492920.

Date/timePositionNaut miles runAvg speedWind from/ knotsBaromVisibWave heightAir tempDewpointWater temp
2015-Jul-04 01:20N 33°44' W 118°16'0 0.0
2015-Jul-03 23:25N 33°44' W 118°16'0 0.0
2015-Jul-03 22:32N 33°44' W 118°16'8 8.1
2015-Jul-03 21:31N 33°37' W 118°11'3 3.1
2015-Jul-03 20:25N 33°35' W 118°08'0 0.1
2015-Jul-03 19:33N 33°35' W 118°08'0 0.0
2015-Jul-03 18:33N 33°35' W 118°08'0 0.0
2015-Jul-03 17:33N 33°35' W 118°08'1 1.2
2015-Jul-03 16:33N 33°34' W 118°07'3 3.0
2015-Jul-03 15:33N 33°36' W 118°09'10 9.6
2015-Jul-03 14:33N 33°44' W 118°16'0 0.1
2015-Jul-03 12:11N 33°44' W 118°16'0 0.0
2015-Jul-03 11:29N 33°44' W 118°16'0 0.0
2015-Jul-03 10:26N 33°44' W 118°16'0 0.0
2015-Jul-03 09:29N 33°44' W 118°16'0 0.0
2015-Jul-03 08:32N 33°44' W 118°16'0 0.0
2015-Jul-03 07:26N 33°44' W 118°16'0 0.0
2015-Jul-03 06:32N 33°44' W 118°16'0 0.0
2015-Jul-03 05:32N 33°44' W 118°16'0 0.0
2015-Jul-03 04:32N 33°44' W 118°16'0 0.0
2015-Jul-03 03:29N 33°44' W 118°16'0 0.0
2015-Jul-03 02:32N 33°44' W 118°16'0 0.0
2015-Jul-03 01:29N 33°44' W 118°16'0 0.0
2015-Jul-03 00:29N 33°44' W 118°16'0 0.0
2015-Jul-02 23:33N 33°44' W 118°16'1 0.7
2015-Jul-02 22:33N 33°43' W 118°16'9 8.7
2015-Jul-02 21:33N 33°37' W 118°10'4 3.6
2015-Jul-02 20:33N 33°34' W 118°07'8 7.9
2015-Jul-02 19:33N 33°40' W 118°12'5 4.9
2015-Jul-02 18:33N 33°44' W 118°16'5 5.0
2015-Jul-02 17:31N 33°40' W 118°12'6 6.5
2015-Jul-02 16:31N 33°35' W 118°08'8 7.9
2015-Jul-02 15:33N 33°41' W 118°13'4 3.6
2015-Jul-02 14:29N 33°44' W 118°16'0 0.4
2015-Jul-02 13:33N 33°44' W 118°16'0 0.0
2015-Jul-02 12:32N 33°44' W 118°16'0 0.0
2015-Jul-02 11:33N 33°44' W 118°16'0 0.0
2015-Jul-02 10:33N 33°44' W 118°16'0 0.0
2015-Jul-02 09:33N 33°44' W 118°16'0 0.0
2015-Jul-02 08:29N 33°44' W 118°16'0 0.0
2015-Jul-02 07:33N 33°44' W 118°16'0 0.0
2015-Jul-02 06:27N 33°44' W 118°16'0 0.0
2015-Jul-02 05:33N 33°44' W 118°16'0 0.0
2015-Jul-02 04:31N 33°44' W 118°16'0 0.0
2015-Jul-02 03:22N 33°44' W 118°16'0 0.0
2015-Jul-02 02:33N 33°44' W 118°16'0 0.0
2015-Jul-02 01:33N 33°44' W 118°16'0 0.0
2015-Jul-02 00:33N 33°44' W 118°16'0 0.0
2015-Jul-01 23:33N 33°44' W 118°16'5 5.4
2015-Jul-01 22:33N 33°40' W 118°12'6 6.2
2015-Jul-01 21:33N 33°35' W 118°08'0 0.1
2015-Jul-01 20:33N 33°35' W 118°08'0 0.0
2015-Jul-01 19:33N 33°35' W 118°08'0 0.1
2015-Jul-01 18:33N 33°35' W 118°08'1 1.2
2015-Jul-01 17:33N 33°34' W 118°07'9 8.7
2015-Jul-01 16:33N 33°41' W 118°13'4 4.1
2015-Jul-01 15:33N 33°44' W 118°16'0 0.0
2015-Jul-01 14:33N 33°44' W 118°16'0 0.0
2015-Jul-01 13:33N 33°44' W 118°16'0 0.0
2015-Jul-01 12:33N 33°44' W 118°16'0 0.0
2015-Jul-01 11:33N 33°44' W 118°16'0 0.0
2015-Jul-01 10:33N 33°44' W 118°16'0 0.0
2015-Jul-01 09:30N 33°44' W 118°16'0 0.0
2015-Jul-01 08:31N 33°44' W 118°16'0 0.0
2015-Jul-01 07:33N 33°44' W 118°16'0 0.0
2015-Jul-01 06:33N 33°44' W 118°16'0 0.0
2015-Jul-01 05:33N 33°44' W 118°16'0 0.0
2015-Jul-01 04:33N 33°44' W 118°16'0 0.0
2015-Jul-01 03:33N 33°44' W 118°16'0 0.0
2015-Jul-01 02:33N 33°44' W 118°16'0 0.0
2015-Jul-01 01:33N 33°44' W 118°16'0 0.0
2015-Jul-01 00:33N 33°44' W 118°16'0 0.0
2015-Jun-30 23:33N 33°44' W 118°16'0 0.0
2015-Jun-30 22:33N 33°44' W 118°16'0 0.0
2015-Jun-30 21:33N 33°44' W 118°16'0 0.0
2015-Jun-30 20:33N 33°44' W 118°16'5 5.2
2015-Jun-30 19:33N 33°40' W 118°12'8 7.4
2015-Jun-30 18:32N 33°34' W 118°07'0 0.2
2015-Jun-30 17:30N 33°34' W 118°07'0 0.0
2015-Jun-30 16:33N 33°34' W 118°07'5 4.7
2015-Jun-30 15:31N 33°38' W 118°10'8 8.2
2015-Jun-30 14:33N 33°44' W 118°16'0 0.0
2015-Jun-30 13:33N 33°44' W 118°16'0 0.0
2015-Jun-30 12:33N 33°44' W 118°16'0 0.0
2015-Jun-30 11:33N 33°44' W 118°16'0 0.0
2015-Jun-30 10:33N 33°44' W 118°16'0 0.0
2015-Jun-30 09:33N 33°44' W 118°16'0 0.0
2015-Jun-30 08:28N 33°44' W 118°16'0 0.0
2015-Jun-30 07:32N 33°44' W 118°16'0 0.0
2015-Jun-30 06:33N 33°44' W 118°16'0 0.0
2015-Jun-30 05:33N 33°44' W 118°16'0 0.0
2015-Jun-30 04:33N 33°44' W 118°16'0 0.0
2015-Jun-30 03:33N 33°44' W 118°16'0 0.0
2015-Jun-30 02:33N 33°44' W 118°16'0 0.0
2015-Jun-30 01:33N 33°44' W 118°16'0 0.0
2015-Jun-30 00:33N 33°44' W 118°16'0 0.0
2015-Jun-29 23:33N 33°44' W 118°16'8 8.0
2015-Jun-29 22:33N 33°37' W 118°11'4 3.6
2015-Jun-29 21:32N 33°35' W 118°08'0 0.1
2015-Jun-29 20:33N 33°35' W 118°08'0 0.0
2015-Jun-29 19:32N 33°35' W 118°08'0 0.0
2015-Jun-29 18:33N 33°35' W 118°08'1 1.2
2015-Jun-29 17:33N 33°34' W 118°07'3 3.1
2015-Jun-29 16:30N 33°37' W 118°09'9 9.7
2015-Jun-29 15:33N 33°44' W 118°16'1 0.6
2015-Jun-29 14:33N 33°44' W 118°16'0 0.0
2015-Jun-29 13:33N 33°44' W 118°16'0 0.0
2015-Jun-29 12:27N 33°44' W 118°16'0 0.0
2015-Jun-29 10:18N 33°44' W 118°16'0 0.0
2015-Jun-29 09:12N 33°44' W 118°16'0 0.0
2015-Jun-29 08:30N 33°44' W 118°16'0 0.0
2015-Jun-29 07:27N 33°44' W 118°16'0 0.0
2015-Jun-29 06:30N 33°44' W 118°16'0 0.0
2015-Jun-29 05:27N 33°44' W 118°16'0 0.0
2015-Jun-29 04:33N 33°44' W 118°16'0 0.0
2015-Jun-29 03:33N 33°44' W 118°16'0 0.0
2015-Jun-29 02:33N 33°44' W 118°16'0 0.0
2015-Jun-29 01:30N 33°44' W 118°16'0 0.0
2015-Jun-29 00:33N 33°44' W 118°16'0 0.0
2015-Jun-28 23:33N 33°44' W 118°16'0 0.0
2015-Jun-28 22:33N 33°44' W 118°16'0 0.0
2015-Jun-28 21:03N 33°44' W 118°16'0 0.0
2015-Jun-28 20:30N 33°44' W 118°16'0 0.0
2015-Jun-28 19:03N 33°44' W 118°16'0 0.0
2015-Jun-28 17:21N 33°44' W 118°16'0 0.0
2015-Jun-28 06:30N 33°44' W 118°16'0 0.0
2015-Jun-28 04:30N 33°44' W 118°16'0 0.0
2015-Jun-28 00:30N 33°44' W 118°16'0 0.0
2015-Jun-27 23:33N 33°44' W 118°16'0 0.0
2015-Jun-27 22:24N 33°44' W 118°16'0 0.0
2015-Jun-27 21:12N 33°44' W 118°16'0 0.0
2015-Jun-27 20:30N 33°44' W 118°16'0 0.0
2015-Jun-27 19:30N 33°44' W 118°16'0 0.0
2015-Jun-27 18:30N 33°44' W 118°16'0 0.0
2015-Jun-27 17:30N 33°44' W 118°16'0 0.0
2015-Jun-27 16:30N 33°44' W 118°16'0 0.0
2015-Jun-27 15:33N 33°44' W 118°16'0 0.0
2015-Jun-27 14:33N 33°44' W 118°16'0 0.0
2015-Jun-27 13:33N 33°44' W 118°16'0 0.0
2015-Jun-27 12:33N 33°44' W 118°16'0 0.0
2015-Jun-27 11:30N 33°44' W 118°16'0 0.0
2015-Jun-27 10:33N 33°44' W 118°16'0 0.0
2015-Jun-27 09:33N 33°44' W 118°16'0 0.0
2015-Jun-27 08:30N 33°44' W 118°16'0 0.0
2015-Jun-27 07:33N 33°44' W 118°16'0 0.0
2015-Jun-27 06:30N 33°44' W 118°16'0 0.0
2015-Jun-27 05:33N 33°44' W 118°16'0 0.0
2015-Jun-27 04:33N 33°44' W 118°16'0 0.0
2015-Jun-27 03:31N 33°44' W 118°16'0 0.0
2015-Jun-27 02:33N 33°44' W 118°16'0 0.0
2015-Jun-27 01:33N 33°44' W 118°16'0 0.0
2015-Jun-27 00:33N 33°44' W 118°16'1 1.0
2015-Jun-26 23:33N 33°43' W 118°16'10 9.6
2015-Jun-26 22:33N 33°36' W 118°08'1 1.0
2015-Jun-26 21:34N 33°35' W 118°08'0 0.0
2015-Jun-26 20:30N 33°35' W 118°08'0 0.1
2015-Jun-26 19:33N 33°35' W 118°08'1 1.0
2015-Jun-26 18:19N 33°34' W 118°07'1 0.7
2015-Jun-26 17:32N 33°34' W 118°07'1 0.8
2015-Jun-26 16:34N 33°35' W 118°08'9 8.6
2015-Jun-26 15:33N 33°42' W 118°14'3 0.9
2015-Jun-26 12:21N 33°44' W 118°16'0 0.0
2015-Jun-26 11:33N 33°44' W 118°16'0 0.0
2015-Jun-26 10:33N 33°44' W 118°16'0 0.0
2015-Jun-26 09:33N 33°44' W 118°16'0 0.0
2015-Jun-26 08:33N 33°44' W 118°16'0 0.0
2015-Jun-26 07:18N 33°44' W 118°16'0 0.0
2015-Jun-26 06:33N 33°44' W 118°16'0 0.0
2015-Jun-26 05:33N 33°44' W 118°16'0 0.0
2015-Jun-26 04:33N 33°44' W 118°16'0 0.0
2015-Jun-26 03:33N 33°44' W 118°16'0 0.0
2015-Jun-26 02:33N 33°44' W 118°16'0 0.0
2015-Jun-26 01:33N 33°44' W 118°16'0 0.0
2015-Jun-26 00:33N 33°44' W 118°16'8 7.9
2015-Jun-25 23:33N 33°38' W 118°10'5 5.0
2015-Jun-25 22:33N 33°34' W 118°07'1 1.2
2015-Jun-25 21:33N 33°35' W 118°08'0 0.0
2015-Jun-25 20:27N 33°35' W 118°08'0 0.0
2015-Jun-25 19:06N 33°35' W 118°08'0 0.1
2015-Jun-25 18:33N 33°35' W 118°08'10 9.0
2015-Jun-25 17:25N 33°43' W 118°16'1 1.1
2015-Jun-25 16:24N 33°44' W 118°16'0 0.1
2015-Jun-25 12:29N 33°44' W 118°16'0 0.0
2015-Jun-25 11:25N 33°44' W 118°16'0 0.0
2015-Jun-25 07:32N 33°44' W 118°16'0 0.0
2015-Jun-25 06:32N 33°44' W 118°16'0 0.0
2015-Jun-25 05:32N 33°44' W 118°16'0 0.0
2015-Jun-25 04:31N 33°44' W 118°16'0 0.0
2015-Jun-25 03:28N 33°44' W 118°16'0 0.0
2015-Jun-25 02:26N 33°44' W 118°16'0 0.0
2015-Jun-25 01:32N 33°44' W 118°16'0 0.0
2015-Jun-25 00:32N 33°44' W 118°16'0 0.0
2015-Jun-24 23:32N 33°44' W 118°16'3 3.4
2015-Jun-24 22:33N 33°42' W 118°13'8 8.3
2015-Jun-24 21:33N 33°35' W 118°08'0 0.0
2015-Jun-24 20:33N 33°35' W 118°08'0 0.0
2015-Jun-24 19:32N 33°35' W 118°08'0 0.0
2015-Jun-24 18:33N 33°35' W 118°08'0 0.0
2015-Jun-24 17:33N 33°35' W 118°08'0 0.1
2015-Jun-24 16:33N 33°35' W 118°08'11 5.7
2015-Jun-24 14:33N 33°44' W 118°16'0 0.0
2015-Jun-24 12:11N 33°44' W 118°16'0 0.0
2015-Jun-24 11:26N 33°44' W 118°16'0 0.0
2015-Jun-24 09:32N 33°44' W 118°16'0 0.0
2015-Jun-24 08:20N 33°44' W 118°16'0 0.0
2015-Jun-24 06:20N 33°44' W 118°16'0 0.0
2015-Jun-24 05:05N 33°44' W 118°16'0 0.0
2015-Jun-24 04:29N 33°44' W 118°16'0 0.0
2015-Jun-24 03:32N 33°44' W 118°16'0 0.0
2015-Jun-24 02:32N 33°44' W 118°16'0 0.0
2015-Jun-24 01:23N 33°44' W 118°16'  

Dump ship's entire track history